createdAt,value
2018-03-22T00:00:48.419Z,0.00
2018-03-22T00:01:48.315Z,0.00
2018-03-22T00:02:48.211Z,0.00
2018-03-22T00:03:48.109Z,0.00
2018-03-22T00:04:47.993Z,0.00
2018-03-22T00:05:47.891Z,0.00
2018-03-22T00:06:47.786Z,0.00
2018-03-22T00:07:47.683Z,0.00
2018-03-22T00:08:47.579Z,0.00
2018-03-22T00:09:47.476Z,0.00
2018-03-22T00:10:47.373Z,0.00
2018-03-22T00:11:47.259Z,0.00
2018-03-22T00:12:47.154Z,0.00
2018-03-22T00:13:47.050Z,0.00
2018-03-22T00:14:46.947Z,0.00
2018-03-22T00:15:46.843Z,0.00
2018-03-22T00:16:46.740Z,0.00
2018-03-22T00:17:46.637Z,0.00
2018-03-22T00:18:46.538Z,0.00
2018-03-22T00:19:46.418Z,0.00
2018-03-22T00:20:46.316Z,0.00
2018-03-22T00:21:46.214Z,0.00
2018-03-22T00:22:46.108Z,0.00
2018-03-22T00:23:46.004Z,0.00
2018-03-22T00:24:46.151Z,0.00
2018-03-22T00:25:45.799Z,0.00
2018-03-22T00:26:45.683Z,0.00
2018-03-22T00:27:45.580Z,0.00
2018-03-22T00:28:45.475Z,0.00
2018-03-22T00:29:45.373Z,0.00
2018-03-22T00:30:45.269Z,0.00
2018-03-22T00:31:45.165Z,0.00
2018-03-22T00:32:45.062Z,0.00
2018-03-22T00:33:44.949Z,0.00
2018-03-22T00:34:44.841Z,0.00
2018-03-22T00:35:44.738Z,0.00
2018-03-22T00:36:44.636Z,0.00
2018-03-22T00:37:44.531Z,0.00
2018-03-22T00:38:44.428Z,0.00
2018-03-22T00:39:44.325Z,0.00
2018-03-22T00:40:44.210Z,0.00
2018-03-22T00:41:44.112Z,0.00
2018-03-22T00:42:44.002Z,0.00
2018-03-22T00:43:43.898Z,0.00
2018-03-22T00:44:43.795Z,0.00
2018-03-22T00:45:43.694Z,0.00
2018-03-22T00:46:43.588Z,0.00
2018-03-22T00:47:43.497Z,0.00
2018-03-22T00:48:43.370Z,0.00
2018-03-22T00:49:43.268Z,0.00
2018-03-22T00:50:43.164Z,0.00
2018-03-22T00:51:43.062Z,0.00
2018-03-22T00:52:42.956Z,0.00
2018-03-22T00:53:42.853Z,0.00
2018-03-22T00:54:42.750Z,0.00
2018-03-22T00:55:42.647Z,0.00
2018-03-22T00:56:42.530Z,0.00
2018-03-22T00:57:42.427Z,0.00
2018-03-22T00:58:42.323Z,0.00
2018-03-22T00:59:42.221Z,0.00
2018-03-22T01:00:42.130Z,0.00
2018-03-22T01:01:42.013Z,0.00
2018-03-22T01:02:41.909Z,0.00
2018-03-22T01:03:41.795Z,0.00
2018-03-22T01:04:41.692Z,0.00
2018-03-22T01:05:41.588Z,0.00
2018-03-22T01:06:41.485Z,0.00
2018-03-22T01:07:41.381Z,0.00
2018-03-22T01:08:41.280Z,0.00
2018-03-22T01:09:41.175Z,0.00
2018-03-22T01:10:41.110Z,0.00
2018-03-22T01:11:40.955Z,0.00
2018-03-22T01:12:40.852Z,0.00
2018-03-22T01:13:40.750Z,0.00
2018-03-22T01:14:40.649Z,0.00
2018-03-22T01:15:40.542Z,0.00
2018-03-22T01:16:40.462Z,0.00
2018-03-22T01:17:40.323Z,0.00
2018-03-22T01:18:40.221Z,0.00
2018-03-22T01:19:40.117Z,0.00
2018-03-22T01:20:40.014Z,0.00
2018-03-22T01:21:39.910Z,0.00
2018-03-22T01:22:39.808Z,0.00
2018-03-22T01:23:39.704Z,0.00
2018-03-22T01:24:39.837Z,0.00
2018-03-22T01:25:39.484Z,0.00
2018-03-22T01:26:39.380Z,0.00
2018-03-22T01:27:39.277Z,0.00
2018-03-22T01:28:39.174Z,0.00
2018-03-22T01:29:39.070Z,0.00
2018-03-22T01:30:38.956Z,0.00
2018-03-22T01:31:38.852Z,0.00
2018-03-22T01:32:38.749Z,0.00
2018-03-22T01:33:38.646Z,0.00
2018-03-22T01:34:38.542Z,0.00
2018-03-22T01:35:38.441Z,0.00
2018-03-22T01:36:38.322Z,0.00
2018-03-22T01:37:38.218Z,0.00
2018-03-22T01:38:38.116Z,0.00
2018-03-22T01:39:38.012Z,0.00
2018-03-22T01:40:37.937Z,0.00
2018-03-22T01:41:37.806Z,0.00
2018-03-22T01:42:37.691Z,0.00
2018-03-22T01:43:37.588Z,0.00
2018-03-22T01:44:37.485Z,0.00
2018-03-22T01:45:37.382Z,0.00
2018-03-22T01:46:37.277Z,0.00
2018-03-22T01:47:37.165Z,0.00
2018-03-22T01:48:37.056Z,0.00
2018-03-22T01:49:36.954Z,0.00
2018-03-22T01:50:36.850Z,0.00
2018-03-22T01:51:36.748Z,0.00
2018-03-22T01:52:36.644Z,0.00
2018-03-22T01:53:36.532Z,0.00
2018-03-22T01:54:36.431Z,0.00
2018-03-22T01:55:36.322Z,0.00
2018-03-22T01:56:36.219Z,0.00
2018-03-22T01:57:36.115Z,0.00
2018-03-22T01:58:36.001Z,0.00
2018-03-22T01:59:36.146Z,0.00
2018-03-22T02:00:35.793Z,0.00
2018-03-22T02:01:35.692Z,0.00
2018-03-22T02:02:35.599Z,0.00
2018-03-22T02:03:35.483Z,0.00
2018-03-22T02:04:35.368Z,0.00
2018-03-22T02:05:35.264Z,0.00
2018-03-22T02:06:35.161Z,0.00
2018-03-22T02:07:35.058Z,0.00
2018-03-22T02:08:34.955Z,0.00
2018-03-22T02:09:34.838Z,0.00
2018-03-22T02:10:34.737Z,0.00
2018-03-22T02:11:34.631Z,0.00
2018-03-22T02:12:34.528Z,0.00
2018-03-22T02:13:34.424Z,0.00
2018-03-22T02:14:34.321Z,0.00
2018-03-22T02:15:34.206Z,0.00
2018-03-22T02:16:34.103Z,0.00
2018-03-22T02:17:34.000Z,0.00
2018-03-22T02:18:33.897Z,0.00
2018-03-22T02:19:33.792Z,0.00
2018-03-22T02:20:33.690Z,0.00
2018-03-22T02:21:33.572Z,0.00
2018-03-22T02:22:33.470Z,0.00
2018-03-22T02:23:33.367Z,0.00
2018-03-22T02:24:33.263Z,0.00
2018-03-22T02:25:33.160Z,0.00
2018-03-22T02:26:33.045Z,0.00
2018-03-22T02:27:32.941Z,0.00
2018-03-22T02:28:32.838Z,0.00
2018-03-22T02:29:32.737Z,0.00
2018-03-22T02:30:32.632Z,0.00
2018-03-22T02:31:32.529Z,0.00
2018-03-22T02:32:32.425Z,0.00
2018-03-22T02:33:32.309Z,0.00
2018-03-22T02:34:32.205Z,0.00
2018-03-22T02:35:32.102Z,0.00
2018-03-22T02:36:31.998Z,0.00
2018-03-22T02:37:31.883Z,0.00
2018-03-22T02:38:31.781Z,0.00
2018-03-22T02:39:31.679Z,0.00
2018-03-22T02:40:31.573Z,0.00
2018-03-22T02:41:31.470Z,0.00
2018-03-22T02:42:31.354Z,0.00
2018-03-22T02:43:31.250Z,0.00
2018-03-22T02:44:31.147Z,0.00
2018-03-22T02:45:31.045Z,0.00
2018-03-22T02:46:30.940Z,0.00
2018-03-22T02:47:30.825Z,0.00
2018-03-22T02:48:30.722Z,0.00
2018-03-22T02:49:30.618Z,0.00
2018-03-22T02:50:30.516Z,0.00
2018-03-22T02:51:30.412Z,0.00
2018-03-22T02:52:30.296Z,0.00
2018-03-22T02:53:30.197Z,0.00
2018-03-22T02:54:30.089Z,0.00
2018-03-22T02:55:29.986Z,0.00
2018-03-22T02:56:29.881Z,0.00
2018-03-22T02:57:29.784Z,0.00
2018-03-22T02:58:29.664Z,0.00
2018-03-22T02:59:29.568Z,0.00
2018-03-22T03:00:29.491Z,0.00
2018-03-22T03:01:29.354Z,0.00
2018-03-22T03:02:29.251Z,0.00
2018-03-22T03:03:29.134Z,0.00
2018-03-22T03:04:29.030Z,0.00
2018-03-22T03:05:28.926Z,0.00
2018-03-22T03:06:28.826Z,0.00
2018-03-22T03:07:28.720Z,0.00
2018-03-22T03:08:28.605Z,0.00
2018-03-22T03:09:28.502Z,0.00
2018-03-22T03:10:28.401Z,0.00
2018-03-22T03:11:28.296Z,0.00
2018-03-22T03:12:28.192Z,0.00
2018-03-22T03:13:28.077Z,0.00
2018-03-22T03:14:27.972Z,0.00
2018-03-22T03:15:27.868Z,0.00
2018-03-22T03:16:27.765Z,0.00
2018-03-22T03:17:27.664Z,0.00
2018-03-22T03:18:27.559Z,0.00
2018-03-22T03:19:27.445Z,0.00
2018-03-22T03:20:27.345Z,0.00
2018-03-22T03:21:27.239Z,0.00
2018-03-22T03:22:27.134Z,0.00
2018-03-22T03:23:27.031Z,0.00
2018-03-22T03:24:26.914Z,0.00
2018-03-22T03:25:26.811Z,0.00
2018-03-22T03:26:26.707Z,0.00
2018-03-22T03:27:26.604Z,0.00
2018-03-22T03:28:26.501Z,0.00
2018-03-22T03:29:26.389Z,0.00
2018-03-22T03:30:26.332Z,0.00
2018-03-22T03:31:26.180Z,0.00
2018-03-22T03:32:26.076Z,0.00
2018-03-22T03:33:25.973Z,0.00
2018-03-22T03:34:25.869Z,0.00
2018-03-22T03:35:25.752Z,0.00
2018-03-22T03:36:25.649Z,0.00
2018-03-22T03:37:25.547Z,0.00
2018-03-22T03:38:25.456Z,0.00
2018-03-22T03:39:25.339Z,0.00
2018-03-22T03:40:25.224Z,0.00
2018-03-22T03:41:25.122Z,0.00
2018-03-22T03:42:25.018Z,0.00
2018-03-22T03:43:24.914Z,0.00
2018-03-22T03:44:24.813Z,0.00
2018-03-22T03:45:24.696Z,0.00
2018-03-22T03:46:24.590Z,0.00
2018-03-22T03:47:24.488Z,0.00
2018-03-22T03:48:24.391Z,0.00
2018-03-22T03:49:24.282Z,0.00
2018-03-22T03:50:24.178Z,0.00
2018-03-22T03:51:24.063Z,0.00
2018-03-22T03:52:23.961Z,0.00
2018-03-22T03:53:23.856Z,0.00
2018-03-22T03:54:23.752Z,0.00
2018-03-22T03:55:23.655Z,0.00
2018-03-22T03:56:23.573Z,0.00
2018-03-22T03:57:23.429Z,0.00
2018-03-22T03:58:23.325Z,0.00
2018-03-22T03:59:23.222Z,0.00
2018-03-22T04:00:23.120Z,0.00
2018-03-22T04:01:23.017Z,0.00
2018-03-22T04:02:22.919Z,0.00
2018-03-22T04:03:22.797Z,0.00
2018-03-22T04:04:22.694Z,0.00
2018-03-22T04:05:22.597Z,0.00
2018-03-22T04:06:22.488Z,0.00
2018-03-22T04:07:22.373Z,0.00
2018-03-22T04:08:22.268Z,0.00
2018-03-22T04:09:22.177Z,0.00
2018-03-22T04:10:22.061Z,0.00
2018-03-22T04:11:21.958Z,0.00
2018-03-22T04:12:21.854Z,0.00
2018-03-22T04:13:21.743Z,0.00
2018-03-22T04:14:21.636Z,0.00
2018-03-22T04:15:21.533Z,0.00
2018-03-22T04:16:21.429Z,0.00
2018-03-22T04:17:21.326Z,0.00
2018-03-22T04:18:21.210Z,0.00
2018-03-22T04:19:21.106Z,0.00
2018-03-22T04:20:21.002Z,0.00
2018-03-22T04:21:20.908Z,0.00
2018-03-22T04:22:20.796Z,0.00
2018-03-22T04:23:20.692Z,0.00
2018-03-22T04:24:20.827Z,0.00
2018-03-22T04:25:20.474Z,0.00
2018-03-22T04:26:20.374Z,0.00
2018-03-22T04:27:20.273Z,0.00
2018-03-22T04:28:20.153Z,0.00
2018-03-22T04:29:20.056Z,0.00
2018-03-22T04:30:19.945Z,0.00
2018-03-22T04:31:19.841Z,0.00
2018-03-22T04:32:19.738Z,0.00
2018-03-22T04:33:19.635Z,0.00
2018-03-22T04:34:19.520Z,0.00
2018-03-22T04:35:19.428Z,0.00
2018-03-22T04:36:19.313Z,0.00
2018-03-22T04:37:19.210Z,0.00
2018-03-22T04:38:19.107Z,4.00
2018-03-22T04:39:18.991Z,0.00
2018-03-22T04:40:18.886Z,4.00
2018-03-22T04:41:18.783Z,4.00
2018-03-22T04:42:18.679Z,4.00
2018-03-22T04:43:18.576Z,8.00
2018-03-22T04:44:18.461Z,8.00
2018-03-22T04:45:18.358Z,4.00
2018-03-22T04:46:18.254Z,8.00
2018-03-22T04:47:18.151Z,8.00
2018-03-22T04:48:18.051Z,12.00
2018-03-22T04:49:17.933Z,12.00
2018-03-22T04:50:17.828Z,16.00
2018-03-22T04:51:17.730Z,16.00
2018-03-22T04:52:17.622Z,16.00
2018-03-22T04:53:17.519Z,24.00
2018-03-22T04:54:17.416Z,24.00
2018-03-22T04:55:17.301Z,24.00
2018-03-22T04:56:17.197Z,28.00
2018-03-22T04:57:17.093Z,28.00
2018-03-22T04:58:16.989Z,28.00
2018-03-22T04:59:17.184Z,32.00
2018-03-22T05:00:16.770Z,40.00
2018-03-22T05:01:16.666Z,44.00
2018-03-22T05:02:16.563Z,48.00
2018-03-22T05:03:16.463Z,56.00
2018-03-22T05:04:16.372Z,64.00
2018-03-22T05:05:16.241Z,72.00
2018-03-22T05:06:16.141Z,80.00
2018-03-22T05:07:16.034Z,88.00
2018-03-22T05:08:15.931Z,96.00
2018-03-22T05:09:15.833Z,108.00
2018-03-22T05:10:15.712Z,120.00
2018-03-22T05:11:15.608Z,136.00
2018-03-22T05:12:15.505Z,148.00
2018-03-22T05:13:15.402Z,160.00
2018-03-22T05:14:15.300Z,172.00
2018-03-22T05:15:15.184Z,180.00
2018-03-22T05:16:15.085Z,196.00
2018-03-22T05:17:14.979Z,216.00
2018-03-22T05:18:14.873Z,240.00
2018-03-22T05:19:14.770Z,268.00
2018-03-22T05:20:14.702Z,300.00
2018-03-22T05:21:14.550Z,332.00
2018-03-22T05:22:14.448Z,372.00
2018-03-22T05:23:14.343Z,396.00
2018-03-22T05:24:14.240Z,412.00
2018-03-22T05:25:14.125Z,424.00
2018-03-22T05:26:14.021Z,448.00
2018-03-22T05:27:13.923Z,468.00
2018-03-22T05:28:13.815Z,480.00
2018-03-22T05:29:13.711Z,512.00
2018-03-22T05:30:13.599Z,540.00
2018-03-22T05:31:13.492Z,552.00
2018-03-22T05:32:13.404Z,556.00
2018-03-22T05:33:13.286Z,532.00
2018-03-22T05:34:13.182Z,540.00
2018-03-22T05:35:13.078Z,540.00
2018-03-22T05:36:12.962Z,580.00
2018-03-22T05:37:12.860Z,612.00
2018-03-22T05:38:12.758Z,568.00
2018-03-22T05:39:12.855Z,584.00
2018-03-22T05:40:12.550Z,572.00
2018-03-22T05:41:12.434Z,596.00
2018-03-22T05:42:12.329Z,592.00
2018-03-22T05:43:12.228Z,592.00
2018-03-22T05:44:12.137Z,572.00
2018-03-22T05:45:12.033Z,560.00
2018-03-22T05:46:11.917Z,576.00
2018-03-22T05:47:11.803Z,544.00
2018-03-22T05:48:11.699Z,524.00
2018-03-22T05:49:11.596Z,560.00
2018-03-22T05:50:11.492Z,620.00
2018-03-22T05:51:11.388Z,672.00
2018-03-22T05:52:11.274Z,664.00
2018-03-22T05:53:11.169Z,608.00
2018-03-22T05:54:11.065Z,688.00
2018-03-22T05:55:10.962Z,720.00
2018-03-22T05:56:10.859Z,792.00
2018-03-22T05:57:10.756Z,832.00
2018-03-22T05:58:10.641Z,860.00
2018-03-22T05:59:10.788Z,932.00
2018-03-22T06:00:10.436Z,840.00
2018-03-22T06:01:10.331Z,1032.00
2018-03-22T06:02:10.228Z,1076.00
2018-03-22T06:03:10.160Z,1144.00
2018-03-22T06:04:10.008Z,1312.00
2018-03-22T06:05:09.906Z,1404.00
2018-03-22T06:06:09.800Z,1536.00
2018-03-22T06:07:09.703Z,1524.00
2018-03-22T06:08:09.594Z,1532.00
2018-03-22T06:09:09.491Z,1580.00
2018-03-22T06:10:09.387Z,1648.00
2018-03-22T06:11:09.286Z,1680.00
2018-03-22T06:12:09.170Z,1716.00
2018-03-22T06:13:09.066Z,1764.00
2018-03-22T06:14:08.962Z,1860.00
2018-03-22T06:15:08.859Z,1880.00
2018-03-22T06:16:08.743Z,1852.00
2018-03-22T06:17:08.639Z,1832.00
2018-03-22T06:18:08.536Z,1900.00
2018-03-22T06:19:08.432Z,2056.00
2018-03-22T06:20:08.330Z,2264.00
2018-03-22T06:21:08.226Z,2496.00
2018-03-22T06:22:08.123Z,2684.00
2018-03-22T06:23:08.023Z,2868.00
2018-03-22T06:24:07.906Z,2992.00
2018-03-22T06:25:07.804Z,3232.00
2018-03-22T06:26:07.698Z,3376.00
2018-03-22T06:27:07.595Z,3520.00
2018-03-22T06:28:07.492Z,3664.00
2018-03-22T06:29:07.387Z,3684.00
2018-03-22T06:30:07.285Z,3528.00
2018-03-22T06:31:07.168Z,3316.00
2018-03-22T06:32:07.078Z,3096.00
2018-03-22T06:33:06.964Z,2840.00
2018-03-22T06:34:06.858Z,2668.00
2018-03-22T06:35:06.754Z,2444.00
2018-03-22T06:36:06.652Z,2292.00
2018-03-22T06:37:06.548Z,2252.00
2018-03-22T06:38:06.444Z,2292.00
2018-03-22T06:39:06.341Z,2348.00
2018-03-22T06:40:06.259Z,2332.00
2018-03-22T06:41:06.123Z,2380.00
2018-03-22T06:42:06.019Z,2488.00
2018-03-22T06:43:05.917Z,2404.00
2018-03-22T06:44:06.063Z,2244.00
2018-03-22T06:45:05.711Z,2068.00
2018-03-22T06:46:05.606Z,1856.00
2018-03-22T06:47:05.502Z,1724.00
2018-03-22T06:48:05.390Z,1676.00
2018-03-22T06:49:05.283Z,1624.00
2018-03-22T06:50:05.180Z,1632.00
2018-03-22T06:51:05.079Z,1632.00
2018-03-22T06:52:04.973Z,1628.00
2018-03-22T06:53:04.877Z,1732.00
2018-03-22T06:54:04.771Z,1852.00
2018-03-22T06:55:04.652Z,1936.00
2018-03-22T06:56:04.549Z,2100.00
2018-03-22T06:57:04.446Z,2340.00
2018-03-22T06:58:04.342Z,2684.00
2018-03-22T06:59:04.239Z,2828.00
2018-03-22T07:00:04.136Z,3068.00
2018-03-22T07:01:04.032Z,3212.00
2018-03-22T07:02:03.914Z,3408.00
2018-03-22T07:03:03.811Z,3424.00
2018-03-22T07:04:03.708Z,3556.00
2018-03-22T07:05:03.605Z,3460.00
2018-03-22T07:06:03.502Z,3524.00
2018-03-22T07:07:03.398Z,3584.00
2018-03-22T07:08:03.283Z,3728.00
2018-03-22T07:09:03.184Z,3664.00
2018-03-22T07:10:03.076Z,3440.00
2018-03-22T07:11:02.974Z,3084.00
2018-03-22T07:12:02.870Z,2904.00
2018-03-22T07:13:02.767Z,2772.00
2018-03-22T07:14:02.651Z,2636.00
2018-03-22T07:15:02.548Z,2540.00
2018-03-22T07:16:02.457Z,2364.00
2018-03-22T07:17:02.340Z,2332.00
2018-03-22T07:18:02.237Z,2160.00
2018-03-22T07:19:02.133Z,2280.00
2018-03-22T07:20:02.019Z,2224.00
2018-03-22T07:21:01.915Z,2416.00
2018-03-22T07:22:01.812Z,2432.00
2018-03-22T07:23:01.708Z,2388.00
2018-03-22T07:24:01.595Z,2248.00
2018-03-22T07:25:01.494Z,2180.00
2018-03-22T07:26:01.404Z,2168.00
2018-03-22T07:27:01.282Z,2236.00
2018-03-22T07:28:01.178Z,2188.00
2018-03-22T07:29:01.075Z,2368.00
2018-03-22T07:30:00.960Z,2520.00
2018-03-22T07:31:00.857Z,2752.00
2018-03-22T07:32:00.754Z,2648.00
2018-03-22T07:33:00.651Z,2932.00
2018-03-22T07:34:00.536Z,3040.00
2018-03-22T07:35:00.430Z,2952.00
2018-03-22T07:36:00.328Z,2768.00
2018-03-22T07:37:00.224Z,3000.00
2018-03-22T07:38:00.121Z,2912.00
2018-03-22T07:39:00.005Z,2772.00
2018-03-22T07:39:59.902Z,2536.00
2018-03-22T07:40:59.799Z,2532.00
2018-03-22T07:41:59.695Z,2336.00
2018-03-22T07:42:59.593Z,2616.00
2018-03-22T07:43:59.477Z,2876.00
2018-03-22T07:44:59.406Z,3152.00
2018-03-22T07:45:59.269Z,3572.00
2018-03-22T07:46:59.168Z,3652.00
2018-03-22T07:47:59.051Z,3616.00
2018-03-22T07:48:58.951Z,4112.00
2018-03-22T07:49:58.845Z,4616.00
2018-03-22T07:50:58.741Z,4792.00
2018-03-22T07:51:58.625Z,4980.00
2018-03-22T07:52:58.521Z,5284.00
2018-03-22T07:53:58.417Z,5588.00
2018-03-22T07:54:58.314Z,5912.00
2018-03-22T07:55:58.211Z,5868.00
2018-03-22T07:56:58.096Z,5752.00
2018-03-22T07:57:57.992Z,5660.00
2018-03-22T07:58:57.906Z,5112.00
2018-03-22T07:59:57.786Z,6360.00
2018-03-22T08:00:57.683Z,7296.00
2018-03-22T08:01:57.568Z,7388.00
2018-03-22T08:02:57.463Z,7896.00
2018-03-22T08:03:57.359Z,7804.00
2018-03-22T08:04:57.256Z,7224.00
2018-03-22T08:05:57.209Z,6744.00
2018-03-22T08:06:57.083Z,6992.00
2018-03-22T08:07:56.934Z,6888.00
2018-03-22T08:08:56.831Z,6484.00
2018-03-22T08:09:56.728Z,6080.00
2018-03-22T08:10:56.628Z,5356.00
2018-03-22T08:11:56.521Z,5392.00
2018-03-22T08:12:56.405Z,4076.00
2018-03-22T08:13:56.301Z,4836.00
2018-03-22T08:14:56.197Z,4904.00
2018-03-22T08:15:56.097Z,4860.00
2018-03-22T08:16:55.991Z,4008.00
2018-03-22T08:17:55.888Z,4680.00
2018-03-22T08:18:56.073Z,4924.00
2018-03-22T08:19:55.671Z,5476.00
2018-03-22T08:20:55.566Z,5696.00
2018-03-22T08:21:55.464Z,5472.00
2018-03-22T08:22:55.363Z,6440.00
2018-03-22T08:23:55.243Z,6236.00
2018-03-22T08:24:55.139Z,6624.00
2018-03-22T08:25:55.036Z,6408.00
2018-03-22T08:26:54.933Z,6696.00
2018-03-22T08:27:54.829Z,6104.00
2018-03-22T08:28:54.729Z,6312.00
2018-03-22T08:29:54.612Z,6380.00
2018-03-22T08:30:54.508Z,6752.00
2018-03-22T08:31:54.405Z,6212.00
2018-03-22T08:32:54.302Z,7216.00
2018-03-22T08:33:54.198Z,7372.00
2018-03-22T08:34:54.095Z,7532.00
2018-03-22T08:35:53.978Z,7872.00
2018-03-22T08:36:53.877Z,7784.00
2018-03-22T08:37:53.771Z,7356.00
2018-03-22T08:38:53.920Z,7444.00
2018-03-22T08:39:53.564Z,9384.00
2018-03-22T08:40:53.465Z,9876.00
2018-03-22T08:41:53.346Z,7584.00
2018-03-22T08:42:53.243Z,6600.00
2018-03-22T08:43:53.140Z,7548.00
2018-03-22T08:44:53.036Z,6368.00
2018-03-22T08:45:52.933Z,7764.00
2018-03-22T08:46:52.830Z,7160.00
2018-03-22T08:47:52.726Z,7944.00
2018-03-22T08:48:52.611Z,5624.00
2018-03-22T08:49:52.520Z,6464.00
2018-03-22T08:50:52.403Z,7240.00
2018-03-22T08:51:52.300Z,7956.00
2018-03-22T08:52:52.198Z,7096.00
2018-03-22T08:53:52.081Z,6984.00
2018-03-22T08:54:51.979Z,5908.00
2018-03-22T08:55:51.874Z,8112.00
2018-03-22T08:56:51.771Z,7684.00
2018-03-22T08:57:51.668Z,8252.00
2018-03-22T08:58:51.815Z,8392.00
2018-03-22T08:59:51.450Z,6740.00
2018-03-22T09:00:51.348Z,8392.00
2018-03-22T09:01:51.244Z,9856.00
2018-03-22T09:02:51.138Z,8860.00
2018-03-22T09:03:51.036Z,8332.00
2018-03-22T09:04:50.934Z,8820.00
2018-03-22T09:05:50.829Z,8760.00
2018-03-22T09:06:50.718Z,9580.00
2018-03-22T09:07:50.610Z,8500.00
2018-03-22T09:08:50.508Z,9160.00
2018-03-22T09:09:50.404Z,9228.00
2018-03-22T09:10:50.305Z,9228.00
2018-03-22T09:11:50.196Z,8196.00
2018-03-22T09:12:50.082Z,9352.00
2018-03-22T09:13:49.977Z,8488.00
2018-03-22T09:14:49.873Z,9244.00
2018-03-22T09:15:49.770Z,8964.00
2018-03-22T09:16:49.667Z,7172.00
2018-03-22T09:17:49.564Z,8168.00
2018-03-22T09:18:49.460Z,7316.00
2018-03-22T09:19:49.346Z,5552.00
2018-03-22T09:20:49.244Z,6376.00
2018-03-22T09:21:49.138Z,5856.00
2018-03-22T09:22:49.036Z,4896.00
2018-03-22T09:23:48.937Z,6140.00
2018-03-22T09:24:48.829Z,5308.00
2018-03-22T09:25:48.725Z,5708.00
2018-03-22T09:26:48.609Z,6184.00
2018-03-22T09:27:48.508Z,6480.00
2018-03-22T09:28:48.402Z,6340.00
2018-03-22T09:29:48.299Z,5076.00
2018-03-22T09:30:48.195Z,5072.00
2018-03-22T09:31:48.094Z,5592.00
2018-03-22T09:32:47.977Z,6316.00
2018-03-22T09:33:47.874Z,5344.00
2018-03-22T09:34:47.820Z,6104.00
2018-03-22T09:35:47.667Z,6236.00
2018-03-22T09:36:47.564Z,5952.00
2018-03-22T09:37:47.448Z,6368.00
2018-03-22T09:38:47.344Z,4780.00
2018-03-22T09:39:47.241Z,6052.00
2018-03-22T09:40:47.137Z,5920.00
2018-03-22T09:41:47.048Z,5120.00
2018-03-22T09:42:46.930Z,7180.00
2018-03-22T09:43:46.815Z,6708.00
2018-03-22T09:44:46.712Z,8224.00
2018-03-22T09:45:46.608Z,6808.00
2018-03-22T09:46:46.505Z,6668.00
2018-03-22T09:47:46.404Z,5876.00
2018-03-22T09:48:46.286Z,5328.00
2018-03-22T09:49:46.195Z,5316.00
2018-03-22T09:50:46.081Z,4220.00
2018-03-22T09:51:45.977Z,4008.00
2018-03-22T09:52:45.873Z,4024.00
2018-03-22T09:53:45.804Z,3776.00
2018-03-22T09:54:45.655Z,4096.00
2018-03-22T09:55:45.551Z,3268.00
2018-03-22T09:56:45.449Z,3816.00
2018-03-22T09:57:45.349Z,3936.00
2018-03-22T09:58:45.242Z,4004.00
2018-03-22T09:59:45.124Z,4008.00
2018-03-22T10:00:45.021Z,4252.00
2018-03-22T10:01:44.921Z,3980.00
2018-03-22T10:02:44.827Z,4216.00
2018-03-22T10:03:44.711Z,4608.00
2018-03-22T10:04:44.596Z,4168.00
2018-03-22T10:05:44.492Z,4900.00
2018-03-22T10:06:44.390Z,4688.00
2018-03-22T10:07:44.287Z,4296.00
2018-03-22T10:08:44.172Z,4496.00
2018-03-22T10:09:44.067Z,4360.00
2018-03-22T10:10:43.963Z,4668.00
2018-03-22T10:11:43.859Z,4420.00
2018-03-22T10:12:43.756Z,4876.00
2018-03-22T10:13:43.653Z,5640.00
2018-03-22T10:14:43.540Z,5856.00
2018-03-22T10:15:43.438Z,6884.00
2018-03-22T10:16:43.331Z,6732.00
2018-03-22T10:17:43.228Z,6264.00
2018-03-22T10:18:43.130Z,7516.00
2018-03-22T10:19:43.009Z,6596.00
2018-03-22T10:20:42.904Z,5572.00
2018-03-22T10:21:42.850Z,4356.00
2018-03-22T10:22:42.702Z,5464.00
2018-03-22T10:23:42.594Z,5072.00
2018-03-22T10:24:42.480Z,5316.00
2018-03-22T10:25:42.376Z,6196.00
2018-03-22T10:26:42.273Z,8152.00
2018-03-22T10:27:42.261Z,8108.00
2018-03-22T10:28:42.066Z,8676.00
2018-03-22T10:29:41.952Z,9908.00
2018-03-22T10:30:41.847Z,8412.00
2018-03-22T10:31:41.744Z,6612.00
2018-03-22T10:32:41.653Z,6108.00
2018-03-22T10:33:41.537Z,6776.00
2018-03-22T10:34:41.434Z,5844.00
2018-03-22T10:35:41.318Z,6832.00
2018-03-22T10:36:41.216Z,6736.00
2018-03-22T10:37:41.111Z,5688.00
2018-03-22T10:38:41.008Z,5600.00
2018-03-22T10:39:40.905Z,6488.00
2018-03-22T10:40:40.789Z,5680.00
2018-03-22T10:41:40.685Z,6764.00
2018-03-22T10:42:40.581Z,7000.00
2018-03-22T10:43:40.479Z,7344.00
2018-03-22T10:44:40.378Z,9336.00
2018-03-22T10:45:40.272Z,10612.00
2018-03-22T10:46:40.157Z,7716.00
2018-03-22T10:47:40.054Z,7488.00
2018-03-22T10:48:39.957Z,10096.00
2018-03-22T10:49:39.847Z,8584.00
2018-03-22T10:50:39.743Z,8456.00
2018-03-22T10:51:39.628Z,7912.00
2018-03-22T10:52:39.524Z,7772.00
2018-03-22T10:53:39.422Z,7520.00
2018-03-22T10:54:39.317Z,8140.00
2018-03-22T10:55:39.214Z,7932.00
2018-03-22T10:56:39.111Z,9972.00
2018-03-22T10:57:39.007Z,9660.00
2018-03-22T10:58:39.142Z,9084.00
2018-03-22T10:59:38.789Z,8540.00
2018-03-22T11:00:38.686Z,7184.00
2018-03-22T11:01:38.582Z,6112.00
2018-03-22T11:02:38.478Z,6032.00
2018-03-22T11:03:38.376Z,5772.00
2018-03-22T11:04:38.260Z,5396.00
2018-03-22T11:05:38.156Z,4788.00
2018-03-22T11:06:38.066Z,5684.00
2018-03-22T11:07:37.949Z,5328.00
2018-03-22T11:08:37.845Z,6056.00
2018-03-22T11:09:37.743Z,5236.00
2018-03-22T11:10:37.627Z,6148.00
2018-03-22T11:11:37.527Z,5452.00
2018-03-22T11:12:37.421Z,5396.00
2018-03-22T11:13:37.326Z,4960.00
2018-03-22T11:14:37.214Z,5408.00
2018-03-22T11:15:37.099Z,4784.00
2018-03-22T11:16:36.994Z,5132.00
2018-03-22T11:17:36.890Z,5540.00
2018-03-22T11:18:37.037Z,5388.00
2018-03-22T11:19:36.697Z,5736.00
2018-03-22T11:20:36.580Z,5960.00
2018-03-22T11:21:36.478Z,6628.00
2018-03-22T11:22:36.370Z,7312.00
2018-03-22T11:23:36.266Z,6932.00
2018-03-22T11:24:36.155Z,6452.00
2018-03-22T11:25:36.052Z,6392.00
2018-03-22T11:26:35.949Z,5800.00
2018-03-22T11:27:35.846Z,5516.00
2018-03-22T11:28:35.730Z,5336.00
2018-03-22T11:29:35.626Z,4492.00
2018-03-22T11:30:35.523Z,5432.00
2018-03-22T11:31:35.419Z,5512.00
2018-03-22T11:32:35.315Z,6004.00
2018-03-22T11:33:35.213Z,5196.00
2018-03-22T11:34:35.108Z,5288.00
2018-03-22T11:35:34.994Z,5500.00
2018-03-22T11:36:34.890Z,5236.00
2018-03-22T11:37:34.788Z,5084.00
2018-03-22T11:38:34.940Z,4668.00
2018-03-22T11:39:34.581Z,4992.00
2018-03-22T11:40:34.478Z,4404.00
2018-03-22T11:41:34.375Z,5380.00
2018-03-22T11:42:34.271Z,4620.00
2018-03-22T11:43:34.154Z,4996.00
2018-03-22T11:44:34.051Z,5244.00
2018-03-22T11:45:33.948Z,5300.00
2018-03-22T11:46:33.847Z,5476.00
2018-03-22T11:47:33.741Z,5376.00
2018-03-22T11:48:33.637Z,5304.00
2018-03-22T11:49:33.534Z,5196.00
2018-03-22T11:50:33.430Z,5780.00
2018-03-22T11:51:33.316Z,5648.00
2018-03-22T11:52:33.213Z,5412.00
2018-03-22T11:53:33.108Z,5092.00
2018-03-22T11:54:33.006Z,4752.00
2018-03-22T11:55:32.903Z,4752.00
2018-03-22T11:56:32.801Z,5588.00
2018-03-22T11:57:32.696Z,5140.00
2018-03-22T11:58:32.831Z,5024.00
2018-03-22T11:59:32.476Z,5336.00
2018-03-22T12:00:32.373Z,5148.00
2018-03-22T12:01:32.271Z,5680.00
2018-03-22T12:02:32.167Z,5624.00
2018-03-22T12:03:32.096Z,5744.00
2018-03-22T12:04:31.972Z,5072.00
2018-03-22T12:05:31.861Z,5340.00
2018-03-22T12:06:31.753Z,4892.00
2018-03-22T12:07:31.637Z,5184.00
2018-03-22T12:08:31.535Z,5992.00
2018-03-22T12:09:31.431Z,5784.00
2018-03-22T12:10:31.328Z,6208.00
2018-03-22T12:11:31.224Z,6680.00
2018-03-22T12:12:31.134Z,6108.00
2018-03-22T12:13:31.019Z,6076.00
2018-03-22T12:14:30.915Z,6328.00
2018-03-22T12:15:30.798Z,5784.00
2018-03-22T12:16:30.695Z,5596.00
2018-03-22T12:17:30.591Z,6180.00
2018-03-22T12:18:30.738Z,6072.00
2018-03-22T12:19:30.385Z,5444.00
2018-03-22T12:20:30.281Z,5452.00
2018-03-22T12:21:30.178Z,5764.00
2018-03-22T12:22:30.075Z,5928.00
2018-03-22T12:23:29.964Z,5796.00
2018-03-22T12:24:29.880Z,5204.00
2018-03-22T12:25:29.756Z,5440.00
2018-03-22T12:26:29.649Z,5792.00
2018-03-22T12:27:29.547Z,6012.00
2018-03-22T12:28:29.443Z,6064.00
2018-03-22T12:29:29.340Z,6624.00
2018-03-22T12:30:29.223Z,6388.00
2018-03-22T12:31:29.122Z,6816.00
2018-03-22T12:32:29.017Z,6960.00
2018-03-22T12:33:28.913Z,8328.00